Time,TemperatureF,DewpointF,PressureIn,WindDirection,WindDirectionDegrees,WindSpeedMPH,WindSpeedGustMPH,Humidity,HourlyPrecipIn,Conditions,Clouds,dailyrainin,SoftwareType,DateUTC
2018-01-16 00:07:00,17.0,14.0,-100.00,West,259,0.0,5.0,89,-99.99,,,-99.99,,2018-01-16 05:07:00,
2018-01-16 01:07:00,17.0,14.0,-100.00,West,263,1.0,3.0,88,-99.99,,,-99.99,,2018-01-16 06:07:00,
2018-01-16 01:38:00,18.0,16.0,-100.00,NNW,347,2.0,-999.0,90,-99.99,,,-99.99,,2018-01-16 06:38:00,
2018-01-16 02:06:00,18.0,16.0,-100.00,NNW,347,2.0,4.0,90,-99.99,,,-99.99,,2018-01-16 07:06:00,
2018-01-16 02:38:00,18.0,15.0,-100.00,North,349,2.0,4.0,89,-99.99,,,-99.99,,2018-01-16 07:38:00,
2018-01-16 03:07:00,18.0,15.0,-100.00,North,349,2.0,4.0,89,-99.99,,,-99.99,,2018-01-16 08:07:00,
2018-01-16 03:38:00,12.0,9.0,-100.00,NNW,341,3.0,5.0,86,-99.99,,,-99.99,,2018-01-16 08:38:00,
2018-01-16 04:38:00,12.0,9.0,-100.00,NNW,345,3.0,5.0,87,-99.99,,,-99.99,,2018-01-16 09:38:00,
2018-01-16 05:07:00,12.0,9.0,-100.00,NNW,345,3.0,5.0,87,-99.99,,,-99.99,,2018-01-16 10:07:00,
2018-01-16 05:38:00,17.0,14.0,-100.00,NNW,334,4.0,7.0,88,-99.99,,,-99.99,,2018-01-16 10:38:00,
2018-01-16 06:07:00,17.0,14.0,-100.00,NNW,334,4.0,7.0,88,-99.99,,,-99.99,,2018-01-16 11:07:00,
2018-01-16 07:07:00,17.0,14.0,-100.00,NW,324,3.0,6.0,88,-99.99,,,-99.99,,2018-01-16 12:07:00,
2018-01-16 07:38:00,13.0,10.0,-100.00,NW,322,3.0,7.0,87,-99.99,,,-99.99,,2018-01-16 12:38:00,
2018-01-16 08:06:00,13.0,10.0,-100.00,NW,322,3.0,7.0,87,-99.99,,,-99.99,,2018-01-16 13:06:00,
2018-01-16 08:38:00,11.0,8.0,-100.00,NNW,331,1.0,3.0,87,-99.99,,,-99.99,,2018-01-16 13:38:00,
2018-01-16 09:06:00,11.0,8.0,-100.00,NNW,331,1.0,3.0,87,-99.99,,,-99.99,,2018-01-16 14:06:00,
2018-01-16 09:38:00,10.0,7.0,-100.00,WSW,256,0.0,3.0,86,-99.99,,,-99.99,,2018-01-16 14:38:00,
2018-01-16 10:06:00,10.0,7.0,-100.00,WSW,256,0.0,3.0,86,-99.99,,,-99.99,,2018-01-16 15:06:00,
2018-01-16 11:07:00,14.0,11.0,-100.00,NW,304,2.0,4.0,87,-99.99,,,-99.99,,2018-01-16 16:07:00,
2018-01-16 11:38:00,19.0,14.0,-100.00,NNW,337,4.0,6.0,80,-99.99,,,-99.99,,2018-01-16 16:38:00,
2018-01-16 12:07:00,19.0,14.0,-100.00,NNW,337,4.0,6.0,80,-99.99,,,-99.99,,2018-01-16 17:07:00,
2018-01-16 12:38:00,21.0,12.0,-100.00,NNW,339,4.0,9.0,68,-99.99,,,-99.99,,2018-01-16 17:38:00,
2018-01-16 13:07:00,21.0,12.0,-100.00,NNW,339,4.0,9.0,68,-99.99,,,-99.99,,2018-01-16 18:07:00,
2018-01-16 13:38:00,20.0,11.0,-100.00,NW,322,6.0,11.0,67,-99.99,,,-99.99,,2018-01-16 18:38:00,
2018-01-16 14:07:00,20.0,11.0,-100.00,NW,322,6.0,11.0,67,-99.99,,,-99.99,,2018-01-16 19:07:00,
2018-01-16 14:38:00,18.0,8.0,-100.00,NNW,340,5.0,13.0,64,-99.99,,,-99.99,,2018-01-16 19:38:00,
2018-01-16 15:07:00,18.0,8.0,-100.00,NNW,340,5.0,13.0,64,-99.99,,,-99.99,,2018-01-16 20:07:00,
2018-01-16 15:38:00,20.0,8.0,-100.00,NW,319,6.0,11.0,60,-99.99,,,-99.99,,2018-01-16 20:38:00,
2018-01-16 16:07:00,20.0,8.0,-100.00,NW,319,6.0,11.0,60,-99.99,,,-99.99,,2018-01-16 21:07:00,